Logo AVAMET
Benvolgut visitant, si us plau, ingressa Recuperar contrasenya

Xàbia Montgó/Castellans

Dades diàries. Acumulats / Últims 30 dies disponibles

Data Temperatura (°C) Humitat rel. (%) Pressió rel. (hPa) Vent (km/h) Precipitació
Mínima Mitjana Màxima Amplitud
tèrmica
Mínima Mitjana Màxima Mínima Mitjana Màxima Predom. Mitjana Ràfega
màxima
Total
(mm)
Índex-n
Mínima Mitjana Màxima Mínima Mitjana Màxima n
0 a 1
P0 max
mm 5'
Dades mensuals acumulades fins l'últim dia disponible
08/2019 21,1 23,3 26,0 26,6 27,0 30,8 36,4 15,3 28 74 95 1.008 1.014 1.020   3,2 40,2 39,8
Dades anuals acumulades fins l'últim dia disponible
2019 5,1 15,1 26,1 18,5 10,3 22,6 36,9 31,8 17 67 98 994 1.017 1.035   3,3 54,7 475,0
Últims 30 dies disponibles
22-08-2019 21,1     24,3     28,8 7,7 58 77 89 1.018 1.019 1.020 NW 2,4 20,9 0,0
21-08-2019 22,4     24,6     27,9 5,5 55 77 95 1.018 1.019 1.020 SW 1,9 19,3 31,8 0,42 7,50
20-08-2019 23,9     25,7     29,8 5,9 68 84 91 1.013 1.016 1.019 NW 2,7 20,9 1,2
19-08-2019 24,1     26,5     29,7 5,6 67 83 93 1.011 1.013 1.015 NW 4,2 38,6 0,0
18-08-2019 23,0     26,8     33,2 10,2 53 81 94 1.010 1.012 1.013 E 2,9 24,1 0,0
17-08-2019 22,1     26,7     31,3 9,2 55 76 91 1.012 1.014 1.016 SW 2,3 24,1 0,0
16-08-2019 22,0     26,2     30,1 8,1 47 71 87 1.015 1.017 1.018 ESE 3,2 27,4 0,0
15-08-2019 23,1     26,4     31,1 8,0 42 71 89 1.016 1.017 1.018 SW 2,7 24,1 0,0
14-08-2019 22,3     25,6     29,1 6,8 57 72 84 1.016 1.018 1.019 SW 3,2 27,4 0,0
13-08-2019 22,0     25,1     27,9 5,9 54 72 89 1.017 1.018 1.019 E 2,7 22,5 6,6 0,22 2,80
12-08-2019 24,3     25,9     28,4 4,1 64 80 90 1.010 1.013 1.017 WNW 4,5 40,2 0,0
11-08-2019 25,4     27,7     32,1 6,7 62 79 91 1.010 1.012 1.014 WNW 4,0 22,5 0,2
10-08-2019 26,0     29,3     31,8 5,8 34 60 91 1.012 1.014 1.016 WNW 4,8 32,2 0,0
09-08-2019 24,5     30,1     36,4 11,9 28 55 90 1.010 1.012 1.013 ESE 1,4 17,7 0,0
08-08-2019 24,6     28,9     34,0 9,4 31 66 91 1.010 1.011 1.013 ESE 3,9 35,4 0,0
07-08-2019 24,1     27,6     31,6 7,5 53 78 93 1.008 1.010 1.012 E 1,4 22,5 0,0
06-08-2019 23,7     27,6     33,4 9,7 59 79 93 1.008 1.011 1.013 ESE 1,9 17,7 0,0
05-08-2019 23,4     26,6     30,3 6,9 66 79 90 1.011 1.013 1.014 WNW 3,2 27,4 0,0
04-08-2019 22,7     26,8     32,6 9,9 49 67 88 1.012 1.013 1.014 ESE 2,9 19,3 0,0
03-08-2019 23,2     25,9     30,5 7,3 41 75 90 1.012 1.014 1.015 WNW 4,3 24,1 0,0
02-08-2019 22,5     25,5     30,0 7,5 60 77 89 1.012 1.014 1.015 WNW 5,1 33,8 0,0
01-08-2019 23,1     24,8     27,0 3,9 67 79 88 1.010 1.012 1.014 WNW 4,8 30,6 0,0
31-07-2019 23,3     25,3     28,7 5,4 61 79 92 1.013 1.015 1.017 S 2,5 20,9 0,0
30-07-2019 22,4     25,3     28,8 6,4 55 78 88 1.010 1.012 1.015 E 3,9 33,8 0,0
29-07-2019 21,8     26,2     30,4 8,6 47 69 86 1.009 1.010 1.011 ESE 3,4 29,0 0,0
28-07-2019 23,1     25,8     29,1 6,0 43 60 80 1.007 1.009 1.010 NW 4,0 24,1 0,0
27-07-2019 22,8     28,2     33,3 10,5 26 56 88 1.002 1.005 1.008 WNW 4,0 25,7 0,0
26-07-2019 23,3     26,7     31,1 7,8 59 75 89 1.007 1.009 1.013 ESE 1,9 22,5 0,0
25-07-2019 23,9     28,1     33,4 9,5 32 53 85 1.012 1.013 1.015 E 3,7 19,3 0,0
24-07-2019 23,6     27,7     33,6 10,0 29 58 82 1.014 1.015 1.016 NW 3,4 17,7 0,0
Últims 13 mesos disponibles
07/2019 21,1 23,0 26,1 26,5 28,5 30,9 36,9 15,8 45 70 82 1.005 1.013 1.020 ESE 3,5 41,8 1,6
06/2019 14,7 18,5 23,9 22,3 21,6 26,6 35,6 20,9 46 68 84 1.008 1.015 1.021 WNW 4,3 45,1 1,0
05/2019 11,2 15,1 20,4 18,5 18,8 22,8 29,3 18,1 48 70 83 1.005 1.015 1.024 NW 3,0 51,5 11,6
04/2019 9,1 12,4 14,3 15,4 13,9 19,3 28,1 19,0 38 69 94 999 1.012 1.025 NW 4,0 49,9 377,2
03/2019 7,9 11,4 14,6 14,9 13,7 19,2 27,1 19,2 38 62 92 1.010 1.022 1.030 NW 2,7 54,7 38,0
02/2019 6,4 9,6 12,0 13,0 13,0 17,3 23,1 16,7 37 65 89 996 1.024 1.033 NW 3,4 53,1 0,2
01/2019 5,1 9,3 12,5 12,5 10,3 16,0 20,9 15,8 38 59 82 1.003 1.018 1.030 W 2,7 48,3 5,6
12/2018 8,1 11,3 14,9 14,5 12,7 18,3 22,9 14,8 42 68 87 1.008 1.024 1.030 NW 1,9 59,5 23,4
11/2018 10,6 13,3 16,5 15,8 14,4 18,6 23,6 13,0 46 69 94 1.000 1.015 1.022 W 2,8 59,5 88,6
10/2018 9,1 16,4 19,9 19,3 14,8 23,1 28,1 19,0 42 73 90 999 1.014 1.025 2,8 53,1 103,0
09/2018 17,4 21,5 23,6 24,2 23,4 28,0 30,9 13,5 66 80 91 1.011 1.018 1.026 2,3 32,2 107,8
08/2018 19,3 23,5 27,3 26,6 24,8 30,7 36,8 17,5 48 73 86 1.012 1.016 1.020 2,7 32,2 131,8
07/2018 20,8 22,6 24,2 26,1 28,2 30,5 33,2 12,4 3,6 51,5 0,0
Tots els anys disponibles
2018 3,8 15,5 27,3 18,7 7,8 22,5 36,8 33,0 42 72 94 999 1.017 1.030 W 3,6 61,2 701,8
2017 0,8 15,4 26,4 18,6 8,4 22,5 34,0 33,2 3,6 67,6 588,4
2016 5,6 15,2 26,8 18,3 12,1 21,9 37,7 32,1 4,2 70,8 353,4
2015 3,4 15,8 21,7 18,9 22,1 22,7 37,9 34,5 4,3 66,0 453,6
2014 4,8 18,1 26,5 21,1 11,6 24,8 34,6 29,8 4,9 61,2 222,6
2013
Temperatura (°C)
Humitat relativa (%)
Velocitat del vent i ràfega màxima (km/h)
Direcció del vent (°)
Pressió (hPa)
Precipitació (mm)
Nota sobre les dades: s'avisa a l'usuari de la provisionalitat i no oficialitat d'aquestes dades
Logo AVAMET blanc
Web allotjada a Sollutia
Llicència de Creative CommonsLa web d'AVAMET i els seus continguts estan subjectes a una llicència de
Reconeixement - No Comercial - Compartir igual
Properes estacions: Altea - Club Nàutic d'Altea (Soci), Ares del Maestrat (Ajuntament Soci),      - - - - -      Últimes estacions: Catadau - Urb. Lloma Molina (Inforatge), Ontinyent - El Pilar (Soci) - - -